Bennington, IN (47011)

10:18 AM EDT on September 02, 2015 (GMT -0400)
KINDILLS2 | | Change Station
CLOSE
Current Station
Personal Weather Station
Location: Dillsboro, IN
Elevation: 840 ft
Nearby Weather Stations

Elev 840 ft 39.00 °N, 85.02 °W | Updated 0 second ago

Clear
Clear
78.1 °F
Feels Like 81 °F
N
0.0
Wind Variable Wind from SW
Gusts 4.0 mph

Today
High -- | Low -- °F
--% Chance of Precip.
Yesterday
High -- | Low -- °F
Precip. -- in
7:09 AM 8:09 PM
Waning Gibbous, 80% visible
Pressure 30.12 in
Visibility 8.0 miles
Clouds Few 3600 ft
Heat Index 81 °F
Dew Point 72 °F
Humidity 83%
Rainfall 0.00 in
Snow Depth Not available.
UV 3 out of 12
Pollen 10.20 out of 12
Air Quality Not available.
Flu Activity Not available.
METAR KCVG 021352Z 25003KT 8SM FEW036 26/20 A3015 RMK AO2 SLP199 T02610200
Pressure 30.12 in
Visibility 8.0 miles
Clouds Few 3600 ft
Heat Index 81 °F
Dew Point 72 °F
Humidity 83%
Rainfall 0.00 in
Snow Depth Not available.
UV 3 out of 12
Pollen 10.20 out of 12
Air Quality Not available.
Flu Activity Not available.
METAR KCVG 021352Z 25003KT 8SM FEW036 26/20 A3015 RMK AO2 SLP199 T02610200

10-Day Weather Forecast

×

Almanac

Astronomy

Sep. 02, 2015 Rise Set
Actual Time
Civil Twilight
Nautical Twilight
Astronomical Twilight
Moon
Length of Visible Light
Length of Day
Tomorrow will be .
, % of the Moon is Illuminated

Today's Extremes

State Highs State Lows

Community

WunderPhotos

Upload Photos

1,851,758 photos uploaded!

WunderBlogs® & News

Nearby

Air Quality

  Air Quality AQ Index Pollutant
Not available.

Snow Depth

Station Depth Elevation

Earthquake Activity

City Distance Mag. Time & Date
Minimum magnitude displayed is 2.5.

Coastal Water Temperatures

Place Temperature

Stations

Nearby Weather Stations

Station Location Temp. Windchill Dew Point Humidity Wind Precip. Elev Updated Type